createdAt,value
2022-09-30T00:01:14.994Z,84.03
2022-09-30T00:03:41.563Z,83.30
2022-09-30T00:06:09.009Z,83.57
2022-09-30T00:08:37.155Z,83.53
2022-09-30T00:11:13.607Z,83.67
2022-09-30T00:13:40.580Z,83.69
2022-09-30T00:16:10.375Z,83.94
2022-09-30T00:18:38.144Z,84.10
2022-09-30T00:21:08.314Z,83.82
2022-09-30T00:23:37.995Z,84.02
2022-09-30T00:26:07.884Z,83.65
2022-09-30T00:28:34.743Z,83.66
2022-09-30T00:31:04.453Z,84.08
2022-09-30T00:33:31.560Z,84.18
2022-09-30T00:35:58.096Z,84.00
2022-09-30T00:38:24.817Z,83.60
2022-09-30T00:40:51.720Z,83.38
2022-09-30T00:43:38.875Z,83.77
2022-09-30T00:46:06.337Z,83.56
2022-09-30T00:48:39.728Z,83.95
2022-09-30T00:51:08.051Z,83.42
2022-09-30T00:54:00.414Z,84.03
2022-09-30T00:56:29.606Z,83.45
2022-09-30T00:59:02.252Z,83.80
2022-09-30T01:01:28.823Z,84.04
2022-09-30T01:04:03.468Z,83.97
2022-09-30T01:06:30.218Z,84.19
2022-09-30T01:08:58.653Z,83.82
2022-09-30T01:11:28.272Z,83.65
2022-09-30T01:13:58.970Z,83.74
2022-09-30T01:16:46.901Z,83.74
2022-09-30T01:19:36.637Z,83.71
2022-09-30T01:22:19.273Z,83.75
2022-09-30T01:25:17.838Z,83.98
2022-09-30T01:27:50.244Z,84.26
2022-09-30T01:30:26.583Z,84.38
2022-09-30T01:33:24.130Z,83.91
2022-09-30T01:36:25.975Z,84.00
2022-09-30T01:39:13.956Z,84.26
2022-09-30T01:42:04.483Z,84.41
2022-09-30T01:44:45.944Z,84.25
2022-09-30T01:47:29.515Z,84.20
2022-09-30T01:50:10.181Z,83.91
2022-09-30T01:52:44.808Z,83.89
2022-09-30T01:55:25.535Z,83.76
2022-09-30T01:58:14.434Z,84.39
2022-09-30T02:00:44.533Z,84.20
2022-09-30T02:03:27.794Z,83.97
2022-09-30T02:06:04.244Z,83.49
2022-09-30T02:08:51.254Z,83.94
2022-09-30T02:11:25.862Z,83.54
2022-09-30T02:13:55.370Z,83.77
2022-09-30T02:16:49.536Z,83.89
2022-09-30T02:19:23.281Z,83.89
2022-09-30T02:22:00.460Z,83.98
2022-09-30T02:24:32.159Z,83.80
2022-09-30T02:27:01.940Z,84.35
2022-09-30T02:29:34.883Z,83.99
2022-09-30T02:32:07.904Z,84.22
2022-09-30T02:34:43.443Z,84.47
2022-09-30T02:37:32.420Z,84.01
2022-09-30T02:40:35.876Z,83.98
2022-09-30T02:43:04.744Z,84.50
2022-09-30T02:45:43.128Z,84.64
2022-09-30T02:48:35.826Z,84.70
2022-09-30T02:51:10.316Z,84.58
2022-09-30T02:53:46.178Z,84.10
2022-09-30T02:56:24.261Z,84.18
2022-09-30T02:58:52.912Z,84.15
2022-09-30T03:01:20.193Z,84.22
2022-09-30T03:04:02.641Z,84.37
2022-09-30T03:06:29.459Z,84.36
2022-09-30T03:08:56.179Z,84.47
2022-09-30T03:11:25.109Z,84.56
2022-09-30T03:14:29.128Z,84.18
2022-09-30T03:17:20.453Z,84.48
2022-09-30T03:19:56.037Z,83.96
2022-09-30T03:22:25.364Z,83.83
2022-09-30T03:25:05.859Z,84.15
2022-09-30T03:27:37.367Z,83.93
2022-09-30T03:30:08.107Z,83.91
2022-09-30T03:33:04.462Z,83.76
2022-09-30T03:36:01.997Z,83.73
2022-09-30T03:38:39.941Z,83.69
2022-09-30T03:41:18.963Z,83.34
2022-09-30T03:43:45.432Z,83.60
2022-09-30T03:46:21.482Z,83.34
2022-09-30T03:48:51.691Z,83.52
2022-09-30T03:51:18.546Z,83.45
2022-09-30T03:53:46.676Z,83.76
2022-09-30T03:56:13.993Z,83.78
2022-09-30T03:58:44.337Z,83.85
2022-09-30T04:01:21.594Z,83.98
2022-09-30T04:03:52.993Z,83.86
2022-09-30T04:06:22.575Z,83.89
2022-09-30T04:08:50.354Z,83.96
2022-09-30T04:11:17.923Z,83.59
2022-09-30T04:13:44.461Z,83.91
2022-09-30T04:16:11.067Z,83.42
2022-09-30T04:18:39.104Z,83.80
2022-09-30T04:21:10.655Z,83.74
2022-09-30T04:23:38.733Z,83.83
2022-09-30T04:26:12.680Z,83.23
2022-09-30T04:28:40.092Z,83.36
2022-09-30T04:31:07.492Z,83.52
2022-09-30T04:33:34.379Z,83.31
2022-09-30T04:36:01.675Z,83.30
2022-09-30T04:38:29.179Z,83.55
2022-09-30T04:40:56.105Z,83.61
2022-09-30T04:43:23.614Z,83.88
2022-09-30T04:45:52.645Z,83.95
2022-09-30T04:48:19.706Z,83.40
2022-09-30T04:50:46.230Z,83.53
2022-09-30T04:53:14.826Z,83.88
2022-09-30T04:55:42.691Z,83.91
2022-09-30T04:58:09.459Z,85.34
2022-09-30T05:00:36.730Z,85.61
2022-09-30T05:03:03.634Z,84.18
2022-09-30T05:05:30.571Z,83.55
2022-09-30T05:08:01.694Z,81.77
2022-09-30T05:10:28.326Z,80.29
2022-09-30T05:12:55.067Z,78.04
2022-09-30T05:15:21.558Z,75.78
2022-09-30T05:17:51.601Z,74.06
2022-09-30T05:20:21.086Z,73.12
2022-09-30T05:22:48.324Z,73.13
2022-09-30T05:25:15.233Z,72.24
2022-09-30T05:27:41.781Z,70.59
2022-09-30T05:30:09.216Z,70.85
2022-09-30T05:32:35.784Z,70.80
2022-09-30T05:35:03.585Z,69.76
2022-09-30T05:37:30.441Z,69.31
2022-09-30T05:39:57.314Z,69.43
2022-09-30T05:42:23.876Z,67.75
2022-09-30T05:44:50.415Z,68.49
2022-09-30T05:47:17.324Z,68.08
2022-09-30T05:49:44.799Z,67.72
2022-09-30T05:52:13.497Z,67.30
2022-09-30T05:54:40.302Z,67.32
2022-09-30T05:57:08.030Z,66.64
2022-09-30T05:59:34.588Z,66.42
2022-09-30T06:02:01.543Z,66.37
2022-09-30T06:04:28.179Z,67.36
2022-09-30T06:06:54.696Z,67.38
2022-09-30T06:09:21.325Z,66.69
2022-09-30T06:11:48.056Z,66.34
2022-09-30T06:14:14.653Z,66.86
2022-09-30T06:16:41.268Z,65.87
2022-09-30T06:19:08.105Z,65.91
2022-09-30T06:21:34.616Z,66.58
2022-09-30T06:24:01.340Z,68.49
2022-09-30T06:26:27.893Z,68.89
2022-09-30T06:28:54.823Z,68.96
2022-09-30T06:31:21.576Z,69.47
2022-09-30T06:33:48.228Z,70.04
2022-09-30T06:36:15.212Z,70.58
2022-09-30T06:38:41.791Z,71.33
2022-09-30T06:41:08.870Z,72.53
2022-09-30T06:43:51.258Z,73.11
2022-09-30T06:46:26.323Z,73.88
2022-09-30T06:49:10.203Z,74.66
2022-09-30T06:51:39.838Z,74.98
2022-09-30T06:54:06.377Z,74.99
2022-09-30T06:56:32.872Z,75.42
2022-09-30T06:58:59.366Z,75.71
2022-09-30T07:01:27.934Z,76.31
2022-09-30T07:03:58.180Z,76.63
2022-09-30T07:06:28.759Z,76.94
2022-09-30T07:08:56.901Z,76.81
2022-09-30T07:11:24.799Z,77.00
2022-09-30T07:13:51.377Z,77.11
2022-09-30T07:16:19.779Z,77.37
2022-09-30T07:18:46.599Z,77.78
2022-09-30T07:21:16.073Z,77.59
2022-09-30T07:23:47.567Z,77.60
2022-09-30T07:26:19.441Z,78.14
2022-09-30T07:28:46.061Z,77.34
2022-09-30T07:31:34.699Z,76.86
2022-09-30T07:34:04.174Z,76.08
2022-09-30T07:36:33.621Z,76.31
2022-09-30T07:39:06.108Z,76.64
2022-09-30T07:41:36.525Z,76.97
2022-09-30T07:44:06.375Z,77.34
2022-09-30T07:46:36.275Z,77.66
2022-09-30T07:49:08.916Z,77.45
2022-09-30T07:51:40.664Z,77.85
2022-09-30T07:54:14.264Z,77.88
2022-09-30T07:57:08.153Z,78.08
2022-09-30T07:59:29.868Z,78.13
2022-09-30T08:01:56.784Z,78.29
2022-09-30T08:04:25.434Z,78.14
2022-09-30T08:06:55.913Z,78.22
2022-09-30T08:09:24.501Z,78.06
2022-09-30T08:11:51.261Z,77.78
2022-09-30T08:14:21.907Z,77.34
2022-09-30T08:16:49.170Z,76.77
2022-09-30T08:19:21.154Z,75.70
2022-09-30T08:21:48.338Z,75.92
2022-09-30T08:24:15.341Z,76.16
2022-09-30T08:26:42.752Z,75.63
2022-09-30T08:29:14.115Z,73.56
2022-09-30T08:31:43.678Z,72.45
2022-09-30T08:34:11.593Z,73.22
2022-09-30T08:36:38.271Z,74.39
2022-09-30T08:39:05.989Z,74.71
2022-09-30T08:42:08.750Z,74.47
2022-09-30T08:44:49.072Z,74.47
2022-09-30T08:47:41.942Z,74.72
2022-09-30T08:50:23.742Z,73.46
2022-09-30T08:52:54.596Z,72.99
2022-09-30T08:55:24.860Z,72.03
2022-09-30T08:57:53.624Z,73.22
2022-09-30T09:00:21.094Z,71.28
2022-09-30T09:02:58.843Z,70.66
2022-09-30T09:05:49.992Z,71.95
2022-09-30T09:08:34.881Z,72.07
2022-09-30T09:11:21.132Z,73.15
2022-09-30T09:13:57.682Z,73.81
2022-09-30T09:16:50.565Z,73.62
2022-09-30T09:19:25.095Z,74.23
2022-09-30T09:21:57.183Z,74.12
2022-09-30T09:24:30.313Z,74.64
2022-09-30T09:26:59.038Z,74.37
2022-09-30T09:29:40.815Z,74.75
2022-09-30T09:32:17.478Z,75.13
2022-09-30T09:34:46.192Z,74.82
2022-09-30T09:37:12.651Z,75.18
2022-09-30T09:39:54.483Z,74.80
2022-09-30T09:42:47.536Z,74.41
2022-09-30T09:45:26.276Z,75.28
2022-09-30T09:47:57.992Z,75.82
2022-09-30T09:50:56.995Z,75.75
2022-09-30T09:53:48.025Z,75.38
2022-09-30T09:56:22.351Z,74.85
2022-09-30T09:59:24.738Z,74.98
2022-09-30T10:01:52.872Z,74.72
2022-09-30T10:04:23.670Z,74.80
2022-09-30T10:07:12.549Z,74.65
2022-09-30T10:09:41.386Z,74.07
2022-09-30T10:12:07.884Z,74.91
2022-09-30T10:14:45.941Z,74.18
2022-09-30T10:17:21.042Z,73.23
2022-09-30T10:19:51.905Z,73.29
2022-09-30T10:22:27.670Z,73.27
2022-09-30T10:25:10.972Z,72.40
2022-09-30T10:27:37.573Z,72.56
2022-09-30T10:30:04.540Z,72.12
2022-09-30T10:32:32.611Z,72.04
2022-09-30T10:35:22.707Z,72.86
2022-09-30T10:37:58.035Z,72.34
2022-09-30T10:40:28.471Z,72.40
2022-09-30T10:42:56.105Z,72.64
2022-09-30T10:46:01.496Z,72.77
2022-09-30T10:48:38.028Z,73.18
2022-09-30T10:51:07.123Z,72.95
2022-09-30T10:53:35.321Z,73.00
2022-09-30T10:56:05.293Z,73.64
2022-09-30T10:58:51.643Z,73.28
2022-09-30T11:01:30.589Z,73.39
2022-09-30T11:04:31.162Z,73.25
2022-09-30T11:07:26.698Z,73.14
2022-09-30T11:10:23.087Z,72.76
2022-09-30T11:12:49.945Z,72.91
2022-09-30T11:15:24.414Z,73.39
2022-09-30T11:17:54.967Z,72.53
2022-09-30T11:20:36.222Z,73.33
2022-09-30T11:23:24.642Z,73.85
2022-09-30T11:26:07.297Z,72.58
2022-09-30T11:29:05.181Z,72.13
2022-09-30T11:31:49.206Z,70.80
2022-09-30T11:34:27.788Z,70.42
2022-09-30T11:37:25.340Z,70.91
2022-09-30T11:40:13.801Z,70.31
2022-09-30T11:42:59.715Z,69.52
2022-09-30T11:45:46.036Z,67.88
2022-09-30T11:48:21.769Z,67.82
2022-09-30T11:51:11.135Z,66.22
2022-09-30T11:53:45.447Z,64.65
2022-09-30T11:56:46.248Z,64.71
2022-09-30T11:59:24.688Z,64.60
2022-09-30T12:01:56.861Z,64.21
2022-09-30T12:04:38.083Z,63.86
2022-09-30T12:07:14.886Z,62.22
2022-09-30T12:09:47.137Z,60.82
2022-09-30T12:12:17.045Z,60.14
2022-09-30T12:15:15.515Z,59.28
2022-09-30T12:17:48.513Z,59.86
2022-09-30T12:20:18.706Z,60.42
2022-09-30T12:22:47.687Z,59.09
2022-09-30T12:25:22.966Z,53.81
2022-09-30T12:28:23.781Z,51.98
2022-09-30T12:31:02.244Z,51.33
2022-09-30T12:33:59.133Z,47.30
2022-09-30T12:37:13.824Z,46.99
2022-09-30T12:39:55.261Z,46.80
2022-09-30T12:42:40.047Z,47.65
2022-09-30T12:45:18.546Z,47.80
2022-09-30T12:47:48.476Z,44.52
2022-09-30T12:50:19.406Z,42.73
2022-09-30T12:52:46.501Z,44.86
2022-09-30T12:55:25.423Z,45.76
2022-09-30T12:57:53.281Z,46.42
2022-09-30T13:00:23.174Z,45.86
2022-09-30T13:02:56.682Z,45.68
2022-09-30T13:05:32.535Z,43.44
2022-09-30T13:08:11.355Z,41.87
2022-09-30T13:10:37.814Z,42.63
2022-09-30T13:13:10.468Z,42.53
2022-09-30T13:15:37.057Z,41.02
2022-09-30T13:18:28.078Z,41.57
2022-09-30T13:21:08.438Z,39.81
2022-09-30T13:23:40.999Z,40.31
2022-09-30T13:26:27.993Z,41.57
2022-09-30T13:29:14.651Z,40.31
2022-09-30T13:31:50.490Z,40.49
2022-09-30T13:34:31.214Z,40.59
2022-09-30T13:37:02.199Z,38.90
2022-09-30T13:39:47.800Z,38.76
2022-09-30T13:42:14.334Z,38.90
2022-09-30T13:44:57.633Z,36.36
2022-09-30T13:47:30.390Z,35.83
2022-09-30T13:50:06.297Z,36.23
2022-09-30T13:52:35.494Z,35.44
2022-09-30T13:55:25.843Z,36.09
2022-09-30T13:58:28.197Z,34.22
2022-09-30T14:01:17.138Z,34.73
2022-09-30T14:04:23.305Z,34.60
2022-09-30T14:06:55.713Z,32.06
2022-09-30T14:09:34.527Z,31.85
2022-09-30T14:12:04.213Z,33.00
2022-09-30T14:14:55.449Z,33.02
2022-09-30T14:17:50.141Z,31.54
2022-09-30T14:20:54.344Z,30.18
2022-09-30T14:23:21.622Z,30.59
2022-09-30T14:26:10.937Z,29.62
2022-09-30T14:29:03.866Z,29.56
2022-09-30T14:31:33.999Z,29.50
2022-09-30T14:34:00.723Z,28.70
2022-09-30T14:36:27.455Z,28.47
2022-09-30T14:38:59.564Z,28.56
2022-09-30T14:41:28.283Z,27.67
2022-09-30T14:43:59.356Z,27.93
2022-09-30T14:46:38.903Z,28.73
2022-09-30T14:49:09.542Z,27.67
2022-09-30T14:51:43.390Z,27.67
2022-09-30T14:54:26.619Z,28.34
2022-09-30T14:56:56.034Z,27.32
2022-09-30T14:59:28.059Z,27.47
2022-09-30T15:02:00.771Z,28.28
2022-09-30T15:04:39.923Z,27.51
2022-09-30T15:07:11.375Z,27.60
2022-09-30T15:09:46.509Z,28.28
2022-09-30T15:12:14.280Z,26.77
2022-09-30T15:14:49.987Z,26.60
2022-09-30T15:17:21.993Z,26.98
2022-09-30T15:19:50.402Z,28.39
2022-09-30T15:22:18.988Z,28.11
2022-09-30T15:24:47.505Z,27.75
2022-09-30T15:27:35.414Z,29.77
2022-09-30T15:30:22.474Z,28.88
2022-09-30T15:32:56.738Z,28.92
2022-09-30T15:35:24.040Z,28.58
2022-09-30T15:37:52.313Z,29.15
2022-09-30T15:40:43.065Z,29.65
2022-09-30T15:43:15.559Z,31.67
2022-09-30T15:45:50.504Z,30.83
2022-09-30T15:48:46.111Z,30.29
2022-09-30T15:51:37.427Z,30.73
2022-09-30T15:54:32.048Z,32.58
2022-09-30T15:57:00.919Z,33.52
2022-09-30T15:59:58.461Z,32.39
2022-09-30T16:02:25.391Z,33.15
2022-09-30T16:04:53.171Z,33.05
2022-09-30T16:07:26.407Z,32.67
2022-09-30T16:09:53.218Z,35.32
2022-09-30T16:12:24.455Z,37.45
2022-09-30T16:14:52.810Z,38.89
2022-09-30T16:17:24.557Z,40.18
2022-09-30T16:19:58.001Z,41.55
2022-09-30T16:22:59.302Z,40.64
2022-09-30T16:25:30.659Z,43.91
2022-09-30T16:28:14.346Z,44.66
2022-09-30T16:30:47.597Z,46.40
2022-09-30T16:33:15.761Z,48.25
2022-09-30T16:35:44.358Z,48.61
2022-09-30T16:38:13.918Z,49.96
2022-09-30T16:40:40.848Z,50.91
2022-09-30T16:43:11.752Z,51.11
2022-09-30T16:45:40.385Z,51.29
2022-09-30T16:48:15.346Z,52.62
2022-09-30T16:50:45.689Z,52.90
2022-09-30T16:53:12.267Z,54.00
2022-09-30T16:55:38.767Z,54.45
2022-09-30T16:58:05.462Z,55.08
2022-09-30T17:00:32.495Z,55.78
2022-09-30T17:02:59.223Z,55.87
2022-09-30T17:05:26.872Z,56.37
2022-09-30T17:07:59.343Z,56.92
2022-09-30T17:10:31.038Z,57.10
2022-09-30T17:13:02.414Z,57.14
2022-09-30T17:15:31.495Z,57.93
2022-09-30T17:17:59.011Z,58.69
2022-09-30T17:20:26.646Z,59.05
2022-09-30T17:22:53.298Z,59.07
2022-09-30T17:25:19.973Z,59.25
2022-09-30T17:27:52.804Z,59.61
2022-09-30T17:30:20.030Z,60.00
2022-09-30T17:32:46.930Z,59.98
2022-09-30T17:35:13.768Z,60.31
2022-09-30T17:37:43.832Z,60.98
2022-09-30T17:40:31.163Z,60.98
2022-09-30T17:43:12.968Z,61.31
2022-09-30T17:45:46.121Z,61.67
2022-09-30T17:48:14.535Z,61.07
2022-09-30T17:50:44.275Z,61.12
2022-09-30T17:53:14.367Z,61.23
2022-09-30T17:55:41.688Z,60.95
2022-09-30T17:58:09.334Z,62.02
2022-09-30T18:00:36.517Z,61.77
2022-09-30T18:03:03.967Z,62.67
2022-09-30T18:05:33.060Z,62.35
2022-09-30T18:07:59.937Z,62.59
2022-09-30T18:10:27.670Z,63.37
2022-09-30T18:12:55.200Z,62.87
2022-09-30T18:15:23.329Z,63.29
2022-09-30T18:17:50.237Z,64.49
2022-09-30T18:20:17.860Z,64.07
2022-09-30T18:22:46.222Z,64.75
2022-09-30T18:25:22.736Z,65.06
2022-09-30T18:27:56.462Z,64.70
2022-09-30T18:30:24.215Z,64.63
2022-09-30T18:32:52.785Z,65.22
2022-09-30T18:35:21.919Z,64.85
2022-09-30T18:37:52.283Z,64.51
2022-09-30T18:40:25.861Z,64.45
2022-09-30T18:42:58.368Z,64.45
2022-09-30T18:45:35.777Z,64.40
2022-09-30T18:48:02.534Z,64.56
2022-09-30T18:50:30.407Z,64.83
2022-09-30T18:52:57.945Z,65.33
2022-09-30T18:55:25.170Z,65.34
2022-09-30T18:57:56.142Z,65.27
2022-09-30T19:00:22.925Z,65.16
2022-09-30T19:02:52.095Z,65.47
2022-09-30T19:05:18.891Z,66.18
2022-09-30T19:07:45.398Z,65.83
2022-09-30T19:10:13.293Z,65.93
2022-09-30T19:12:40.634Z,66.20
2022-09-30T19:15:12.084Z,66.46
2022-09-30T19:17:38.670Z,66.73
2022-09-30T19:20:06.687Z,66.12
2022-09-30T19:22:37.273Z,66.50
2022-09-30T19:25:11.754Z,66.77
2022-09-30T19:27:40.933Z,66.41
2022-09-30T19:30:10.271Z,66.62
2022-09-30T19:32:37.138Z,66.53
2022-09-30T19:35:06.798Z,66.89
2022-09-30T19:37:34.603Z,66.90
2022-09-30T19:40:10.743Z,66.84
2022-09-30T19:42:43.028Z,67.15
2022-09-30T19:45:09.569Z,67.45
2022-09-30T19:47:38.009Z,67.21
2022-09-30T19:50:05.615Z,67.60
2022-09-30T19:52:34.423Z,67.83
2022-09-30T19:55:13.034Z,68.01
2022-09-30T19:57:42.694Z,68.51
2022-09-30T20:00:12.654Z,68.32
2022-09-30T20:02:39.306Z,68.31
2022-09-30T20:05:06.516Z,69.17
2022-09-30T20:07:33.076Z,68.51
2022-09-30T20:10:01.008Z,67.93
2022-09-30T20:12:28.966Z,67.64
2022-09-30T20:15:14.371Z,68.13
2022-09-30T20:17:40.892Z,68.02
2022-09-30T20:20:26.382Z,67.71
2022-09-30T20:22:53.320Z,67.73
2022-09-30T20:25:20.367Z,68.19
2022-09-30T20:27:51.876Z,68.76
2022-09-30T20:30:18.878Z,69.10
2022-09-30T20:32:45.398Z,68.83
2022-09-30T20:35:12.041Z,69.35
2022-09-30T20:37:40.875Z,69.16
2022-09-30T20:40:09.454Z,69.31
2022-09-30T20:42:38.473Z,69.04
2022-09-30T20:45:10.164Z,69.00
2022-09-30T20:47:37.794Z,69.53
2022-09-30T20:50:06.081Z,69.18
2022-09-30T20:52:32.627Z,68.75
2022-09-30T20:55:00.447Z,69.17
2022-09-30T20:57:31.711Z,69.11
2022-09-30T20:59:59.971Z,69.22
2022-09-30T21:02:27.992Z,69.16
2022-09-30T21:04:57.772Z,69.30
2022-09-30T21:07:25.338Z,69.65
2022-09-30T21:09:52.564Z,69.57
2022-09-30T21:12:19.370Z,69.59
2022-09-30T21:14:45.932Z,69.68
2022-09-30T21:17:12.510Z,69.20
2022-09-30T21:19:39.218Z,69.18
2022-09-30T21:22:05.748Z,69.06
2022-09-30T21:24:32.278Z,69.41
2022-09-30T21:26:59.064Z,69.89
2022-09-30T21:29:25.640Z,70.15
2022-09-30T21:31:52.189Z,70.14
2022-09-30T21:34:18.896Z,69.86
2022-09-30T21:36:46.358Z,70.24
2022-09-30T21:39:12.933Z,69.92
2022-09-30T21:41:40.840Z,70.50
2022-09-30T21:44:07.553Z,69.85
2022-09-30T21:46:35.690Z,69.68
2022-09-30T21:49:19.970Z,69.39
2022-09-30T21:51:47.058Z,69.44
2022-09-30T21:54:14.581Z,70.14
2022-09-30T21:56:42.912Z,69.53
2022-09-30T21:59:10.440Z,69.57
2022-09-30T22:01:37.513Z,69.38
2022-09-30T22:04:04.866Z,69.71
2022-09-30T22:06:31.602Z,70.18
2022-09-30T22:09:01.238Z,70.00
2022-09-30T22:11:29.195Z,70.09
2022-09-30T22:13:57.694Z,69.79
2022-09-30T22:16:27.355Z,69.76
2022-09-30T22:18:55.215Z,70.51
2022-09-30T22:21:22.063Z,70.50
2022-09-30T22:23:49.553Z,69.88
2022-09-30T22:26:19.167Z,70.14
2022-09-30T22:28:46.850Z,70.00
2022-09-30T22:31:21.505Z,70.09
2022-09-30T22:34:09.610Z,70.12
2022-09-30T22:36:54.983Z,69.62
2022-09-30T22:39:22.347Z,69.62
2022-09-30T22:41:50.303Z,69.67
2022-09-30T22:44:17.862Z,68.75
2022-09-30T22:46:44.892Z,68.92
2022-09-30T22:49:11.826Z,68.73
2022-09-30T22:51:38.966Z,67.20
2022-09-30T22:54:05.989Z,67.46
2022-09-30T22:56:32.550Z,67.29
2022-09-30T22:58:59.603Z,67.08
2022-09-30T23:01:29.261Z,66.72
2022-09-30T23:03:56.066Z,67.26
2022-09-30T23:06:24.372Z,65.64
2022-09-30T23:08:52.662Z,65.28
2022-09-30T23:11:19.411Z,65.08
2022-09-30T23:13:46.458Z,65.08
2022-09-30T23:16:14.196Z,65.07
2022-09-30T23:18:41.019Z,64.50
2022-09-30T23:21:10.657Z,64.80
2022-09-30T23:23:38.803Z,63.43
2022-09-30T23:26:06.812Z,63.76
2022-09-30T23:28:33.399Z,63.32
2022-09-30T23:31:09.372Z,63.46
2022-09-30T23:33:37.812Z,62.35
2022-09-30T23:36:06.356Z,62.87
2022-09-30T23:38:33.338Z,62.70
2022-09-30T23:41:00.268Z,62.83
2022-09-30T23:43:31.251Z,62.11
2022-09-30T23:46:01.747Z,62.05
2022-09-30T23:48:28.700Z,62.71
2022-09-30T23:50:55.338Z,62.50
2022-09-30T23:53:23.228Z,61.80
2022-09-30T23:56:13.038Z,61.81
2022-09-30T23:58:40.233Z,61.90
